Time;durP1;ratioP1;P1;durP2;ratioP2;P2;SDS_P1;SDS_P2;PMS_P1;PMS_P2;Temp;Humidity;BMP_temperature;BMP_pressure;BME280_temperature;BME280_humidity;BME280_pressure;Samples;Min_cycle;Max_cycle;Signal;HPM_P1;HPM_P2
2022/10/15 00:00:22;;;;;;;635.47;593.00;;;14.70;47.50;;;;;;4977764;28;20260;-72
2022/10/15 00:02:47;;;;;;;547.47;511.67;;;14.70;47.30;;;;;;4977140;28;20189;-72
2022/10/15 00:05:13;;;;;;;562.63;525.93;;;14.80;46.70;;;;;;4976683;28;20194;-72
2022/10/15 00:07:40;;;;;;;534.93;502.53;;;14.80;46.60;;;;;;4977499;28;20184;-72
2022/10/15 00:10:05;;;;;;;600.50;557.60;;;14.70;46.90;;;;;;4976555;28;20182;-72
2022/10/15 00:12:31;;;;;;;680.63;631.63;;;14.80;46.90;;;;;;4977205;28;20425;-73
2022/10/15 00:14:57;;;;;;;751.60;692.13;;;14.80;47.40;;;;;;4977079;28;20554;-72
2022/10/15 00:17:22;;;;;;;730.73;682.33;;;14.80;45.80;;;;;;4977147;28;20400;-72
2022/10/15 00:19:48;;;;;;;739.20;688.03;;;14.80;46.90;;;;;;4977068;28;20185;-73
2022/10/15 00:22:13;;;;;;;786.40;725.43;;;14.90;47.10;;;;;;4976643;28;20209;-73
2022/10/15 00:24:39;;;;;;;830.07;765.40;;;14.80;46.50;;;;;;4977322;28;20263;-72
2022/10/15 00:27:05;;;;;;;636.00;590.33;;;14.90;46.90;;;;;;4977181;28;20177;-72
2022/10/15 00:29:30;;;;;;;580.00;539.87;;;14.80;46.90;;;;;;4977228;28;20192;-72
2022/10/15 00:31:56;;;;;;;481.00;450.57;;;14.80;47.70;;;;;;4977511;28;20188;-72
2022/10/15 00:34:21;;;;;;;668.10;618.90;;;14.80;48.30;;;;;;4976788;28;20213;-71
2022/10/15 00:36:49;;;;;;;430.33;405.97;;;14.80;47.80;;;;;;4976917;28;20448;-72
2022/10/15 00:39:15;;;;;;;448.73;421.17;;;14.80;48.20;;;;;;4976324;28;20192;-72
2022/10/15 00:41:43;;;;;;;655.30;608.87;;;14.80;48.20;;;;;;4975790;28;20828;-72
2022/10/15 00:44:20;;;;;;;537.30;504.50;;;14.80;47.90;;;;;;4976443;28;20582;-72
2022/10/15 00:46:52;;;;;;;919.70;844.23;;;14.90;48.10;;;;;;4976684;28;20477;-72
2022/10/15 00:49:23;;;;;;;751.40;694.23;;;14.80;47.60;;;;;;4977381;28;20420;-72
2022/10/15 00:51:54;;;;;;;565.93;532.60;;;14.90;48.50;;;;;;4989830;28;20439;-73
2022/10/15 00:54:21;;;;;;;621.23;582.60;;;14.90;48.40;;;;;;4994216;28;20455;-72
2022/10/15 00:56:49;;;;;;;648.93;604.63;;;14.90;48.60;;;;;;4993905;28;20444;-72
2022/10/15 00:59:16;;;;;;;668.77;623.07;;;15.00;48.30;;;;;;4994664;28;20451;-73
2022/10/15 01:01:42;;;;;;;815.17;750.37;;;15.00;47.50;;;;;;4993018;28;20816;-72
2022/10/15 01:04:08;;;;;;;621.40;581.23;;;15.00;47.50;;;;;;4985177;28;20448;-72
2022/10/15 01:06:35;;;;;;;811.77;750.63;;;14.90;48.20;;;;;;4980529;28;20204;-72
2022/10/15 01:09:00;;;;;;;1049.40;963.27;;;15.00;48.80;;;;;;4981492;28;20233;-71
2022/10/15 01:11:43;;;;;;;493.90;462.00;;;15.00;48.30;;;;;;4979167;28;20977;-71
2022/10/15 01:14:33;;;;;;;642.57;600.17;;;15.00;48.80;;;;;;4976011;28;20436;-71
2022/10/15 01:17:08;;;;;;;486.37;457.50;;;14.90;49.60;;;;;;4975392;28;20890;-72
2022/10/15 01:20:00;;;;;;;808.80;752.23;;;15.00;49.10;;;;;;4975408;28;20440;-72
2022/10/15 01:23:03;;;;;;;427.37;403.03;;;15.00;48.70;;;;;;4975104;28;21036;-71
2022/10/15 01:25:54;;;;;;;647.93;598.70;;;15.10;49.40;;;;;;4975210;28;20431;-71
2022/10/15 01:28:45;;;;;;;753.20;698.93;;;15.00;49.60;;;;;;4975534;28;20401;-71
2022/10/15 01:31:31;;;;;;;643.60;597.80;;;14.90;49.50;;;;;;4974980;28;20431;-71
2022/10/15 01:34:13;;;;;;;541.97;506.23;;;14.90;49.70;;;;;;4975346;28;20436;-71
2022/10/15 01:37:18;;;;;;;546.93;514.23;;;14.90;50.40;;;;;;4975168;28;20432;-71
2022/10/15 01:39:51;;;;;;;422.67;396.77;;;14.90;51.10;;;;;;4974762;28;20926;-71
2022/10/15 01:42:33;;;;;;;748.93;692.43;;;14.80;51.10;;;;;;4974569;28;20504;-71
2022/10/15 01:45:06;;;;;;;716.47;663.10;;;14.90;50.80;;;;;;4975467;28;20452;-71
2022/10/15 01:47:47;;;;;;;565.07;528.23;;;14.90;50.80;;;;;;4974783;28;20850;-71
2022/10/15 01:50:15;;;;;;;563.53;529.27;;;14.90;51.20;;;;;;4974652;28;20449;-71
2022/10/15 01:52:42;;;;;;;641.30;597.27;;;14.90;50.80;;;;;;4974331;28;20424;-72
2022/10/15 01:55:11;;;;;;;627.30;584.40;;;14.90;50.80;;;;;;4974612;28;20803;-72
2022/10/15 01:57:40;;;;;;;618.37;578.70;;;15.00;50.80;;;;;;4974427;28;20941;-72
2022/10/15 02:00:06;;;;;;;822.50;761.80;;;15.10;50.90;;;;;;4974476;28;20424;-72
2022/10/15 02:02:31;;;;;;;576.27;538.40;;;15.20;50.50;;;;;;4974097;28;20496;-72
2022/10/15 02:04:57;;;;;;;513.57;481.10;;;15.30;50.20;;;;;;4974663;28;20854;-72
2022/10/15 02:07:44;;;;;;;703.37;652.20;;;15.30;50.10;;;;;;4973558;28;20542;-71
2022/10/15 02:10:36;;;;;;;668.13;621.80;;;15.30;48.50;;;;;;4974282;28;20177;-70
2022/10/15 02:13:24;;;;;;;736.73;683.00;;;15.30;48.70;;;;;;4973932;28;20440;-70
2022/10/15 02:16:11;;;;;;;778.93;717.30;;;15.40;48.60;;;;;;4974107;28;20437;-71
2022/10/15 02:18:45;;;;;;;622.37;579.47;;;15.40;48.50;;;;;;4974184;28;20479;-71
2022/10/15 02:21:19;;;;;;;726.40;671.70;;;15.40;48.50;;;;;;4973760;28;20499;-70
2022/10/15 02:23:50;;;;;;;484.57;456.07;;;15.40;48.20;;;;;;4973982;28;20397;-70
2022/10/15 02:26:16;;;;;;;451.53;425.87;;;15.50;48.70;;;;;;4974094;28;20509;-70
2022/10/15 02:28:49;;;;;;;736.30;678.27;;;15.50;49.00;;;;;;4973914;28;20902;-71
2022/10/15 02:31:16;;;;;;;856.87;792.13;;;15.40;48.00;;;;;;4973729;28;20416;-70
2022/10/15 02:33:43;;;;;;;591.53;555.50;;;15.50;48.50;;;;;;4973664;28;20431;-71
2022/10/15 02:36:08;;;;;;;724.50;673.20;;;15.50;48.80;;;;;;4973815;28;20432;-70
2022/10/15 02:38:36;;;;;;;575.87;538.93;;;15.50;49.10;;;;;;4974298;28;20568;-71
2022/10/15 02:41:02;;;;;;;749.67;692.63;;;15.60;48.60;;;;;;4973387;28;20578;-71
2022/10/15 02:43:29;;;;;;;429.67;403.33;;;15.70;46.40;;;;;;4973657;28;20508;-72
2022/10/15 02:45:54;;;;;;;1014.97;927.43;;;15.60;47.30;;;;;;4973880;28;20457;-71
2022/10/15 02:48:20;;;;;;;574.33;539.97;;;15.70;46.40;;;;;;4973551;28;20484;-71
2022/10/15 02:50:45;;;;;;;556.37;522.53;;;15.60;46.30;;;;;;4973259;28;20197;-72
2022/10/15 02:53:11;;;;;;;838.07;774.30;;;15.60;47.00;;;;;;4973533;28;20264;-70
2022/10/15 02:55:37;;;;;;;747.57;692.60;;;15.70;46.40;;;;;;4973430;28;20569;-71
2022/10/15 02:58:02;;;;;;;680.73;638.30;;;15.70;46.40;;;;;;4973563;28;20177;-70
2022/10/15 03:00:28;;;;;;;957.47;880.60;;;15.70;46.40;;;;;;4973391;28;20188;-71
2022/10/15 03:02:53;;;;;;;550.37;515.20;;;15.70;46.40;;;;;;4973083;28;20201;-71
2022/10/15 03:05:19;;;;;;;777.07;719.27;;;15.80;46.50;;;;;;4973250;28;20678;-70
2022/10/15 03:07:45;;;;;;;491.53;461.43;;;15.80;45.30;;;;;;4973342;28;20268;-71
2022/10/15 03:10:10;;;;;;;893.60;826.73;;;15.80;45.20;;;;;;4973253;28;20232;-71
2022/10/15 03:12:36;;;;;;;715.47;657.53;;;15.80;45.30;;;;;;4972987;28;20189;-70
2022/10/15 03:15:02;;;;;;;317.13;299.17;;;15.70;45.10;;;;;;4973136;28;20613;-70
2022/10/15 03:17:27;;;;;;;621.57;580.40;;;15.80;45.40;;;;;;4973000;28;20181;-71
2022/10/15 03:19:53;;;;;;;574.97;537.23;;;15.70;45.50;;;;;;4972887;28;20416;-71
2022/10/15 03:22:18;;;;;;;635.17;588.77;;;15.70;45.80;;;;;;4973068;28;20687;-71
2022/10/15 03:24:44;;;;;;;637.47;593.60;;;15.60;45.70;;;;;;4973092;28;20201;-71
2022/10/15 03:27:09;;;;;;;941.03;854.33;;;15.60;45.70;;;;;;4973155;28;20178;-72
2022/10/15 03:29:35;;;;;;;477.47;446.87;;;15.60;44.60;;;;;;4973165;28;20185;-71
2022/10/15 03:32:00;;;;;;;499.40;465.20;;;15.60;46.00;;;;;;4972828;28;20173;-71
2022/10/15 03:34:26;;;;;;;590.47;549.23;;;15.60;45.40;;;;;;4972855;28;20546;-71
2022/10/15 03:36:51;;;;;;;802.37;740.10;;;15.60;45.50;;;;;;4972976;28;20192;-71
2022/10/15 03:39:17;;;;;;;680.17;629.87;;;15.50;44.90;;;;;;4972997;28;20184;-71
2022/10/15 03:41:42;;;;;;;794.10;743.67;;;15.50;44.80;;;;;;4972725;28;20205;-71
2022/10/15 03:44:09;;;;;;;678.40;631.47;;;15.40;46.10;;;;;;4972675;28;20209;-71
2022/10/15 03:46:35;;;;;;;776.10;716.63;;;15.40;46.20;;;;;;4973002;28;20181;-71
2022/10/15 03:49:01;;;;;;;638.60;592.30;;;15.40;46.10;;;;;;4972725;28;20422;-70
2022/10/15 03:51:27;;;;;;;574.40;538.53;;;15.30;46.10;;;;;;4972576;28;20263;-70
2022/10/15 03:53:52;;;;;;;579.30;542.23;;;15.40;46.10;;;;;;4972786;28;20467;-71
2022/10/15 03:56:18;;;;;;;581.90;542.70;;;15.40;46.10;;;;;;4972889;28;20178;-71
2022/10/15 03:58:44;;;;;;;607.13;562.17;;;15.40;45.80;;;;;;4971626;28;20825;-70
2022/10/15 04:01:11;;;;;;;619.93;572.17;;;15.40;46.10;;;;;;4972455;28;20823;-71
2022/10/15 04:03:37;;;;;;;596.67;557.07;;;15.40;45.30;;;;;;4972657;28;20232;-71
2022/10/15 04:06:03;;;;;;;684.47;637.20;;;15.40;45.30;;;;;;4972772;28;20413;-71
2022/10/15 04:08:29;;;;;;;546.17;515.33;;;15.40;44.70;;;;;;4972953;28;20784;-71
2022/10/15 04:10:54;;;;;;;794.10;738.47;;;15.40;44.70;;;;;;4972395;28;20512;-71
2022/10/15 04:13:20;;;;;;;739.43;685.73;;;15.40;43.70;;;;;;4972732;28;20188;-71
2022/10/15 04:15:45;;;;;;;891.20;816.13;;;15.40;44.50;;;;;;4972757;28;20746;-71
2022/10/15 04:18:11;;;;;;;657.67;611.50;;;15.40;43.90;;;;;;4972631;28;20178;-71
2022/10/15 04:20:37;;;;;;;643.47;598.00;;;15.40;44.00;;;;;;4972611;28;20570;-71
2022/10/15 04:23:03;;;;;;;727.33;672.10;;;15.40;43.50;;;;;;4972431;28;20639;-71
2022/10/15 04:25:28;;;;;;;474.77;447.50;;;15.40;43.10;;;;;;4972474;28;20437;-71
2022/10/15 04:27:54;;;;;;;960.27;880.70;;;15.50;43.40;;;;;;4972643;28;20428;-70
2022/10/15 04:30:20;;;;;;;703.37;650.60;;;15.60;42.60;;;;;;4972762;28;20205;-71
2022/10/15 04:32:46;;;;;;;758.47;698.77;;;15.50;43.10;;;;;;4975491;28;20174;-70
2022/10/15 04:35:11;;;;;;;681.43;633.50;;;15.40;43.20;;;;;;4976147;28;20231;-71
2022/10/15 04:37:37;;;;;;;718.13;662.63;;;15.40;43.10;;;;;;4976031;28;20181;-71
2022/10/15 04:40:03;;;;;;;732.60;675.73;;;15.40;43.20;;;;;;4975923;28;20192;-71
2022/10/15 04:42:30;;;;;;;826.47;760.67;;;15.40;43.50;;;;;;4975619;28;20567;-71
2022/10/15 04:44:55;;;;;;;828.03;763.80;;;15.30;43.40;;;;;;4975678;28;20539;-71
2022/10/15 04:47:21;;;;;;;695.47;641.03;;;15.30;43.50;;;;;;4975897;28;20512;-71
2022/10/15 04:49:47;;;;;;;505.13;471.53;;;15.30;43.70;;;;;;4976253;28;20173;-71
2022/10/15 04:52:12;;;;;;;467.07;437.77;;;15.30;42.70;;;;;;4975750;28;20240;-71
2022/10/15 04:54:38;;;;;;;386.53;363.30;;;15.40;42.80;;;;;;4976041;28;20197;-71
2022/10/15 04:57:04;;;;;;;637.67;589.37;;;15.40;42.90;;;;;;4975550;28;20184;-71
2022/10/15 04:59:30;;;;;;;635.60;590.60;;;15.40;42.60;;;;;;4975855;28;20550;-71
2022/10/15 05:01:55;;;;;;;570.47;530.83;;;15.30;42.50;;;;;;4975344;28;20460;-71
2022/10/15 05:04:21;;;;;;;733.50;678.17;;;15.30;42.30;;;;;;4975628;28;20207;-71
2022/10/15 05:06:46;;;;;;;701.57;649.37;;;15.30;42.70;;;;;;4975774;28;20169;-71
2022/10/15 05:09:12;;;;;;;540.20;502.30;;;15.30;41.90;;;;;;4975492;28;20177;-71
2022/10/15 05:11:38;;;;;;;963.20;885.60;;;15.30;42.80;;;;;;4975192;28;20197;-71
2022/10/15 05:14:03;;;;;;;729.57;673.53;;;15.30;42.00;;;;;;4975403;28;20224;-70
2022/10/15 05:16:30;;;;;;;764.53;700.10;;;15.20;42.30;;;;;;4975165;28;20220;-71
2022/10/15 05:18:59;;;;;;;632.30;585.20;;;15.30;40.90;;;;;;4975197;28;20937;-70
2022/10/15 05:21:25;;;;;;;652.03;604.63;;;15.20;42.00;;;;;;4974865;28;20464;-71
2022/10/15 05:23:51;;;;;;;731.93;673.17;;;15.20;42.60;;;;;;4975135;28;20450;-71
2022/10/15 05:26:20;;;;;;;478.33;447.30;;;15.20;42.50;;;;;;4975089;28;20897;-69
2022/10/15 05:28:46;;;;;;;892.80;817.33;;;15.20;42.40;;;;;;4975010;28;20170;-72
2022/10/15 05:31:14;;;;;;;730.43;673.07;;;15.20;42.30;;;;;;4974789;28;20412;-69
2022/10/15 05:33:40;;;;;;;463.17;433.60;;;15.10;42.70;;;;;;4973595;28;20433;-71
2022/10/15 05:36:20;;;;;;;662.43;614.97;;;15.20;43.50;;;;;;4975068;28;20791;-72
2022/10/15 05:39:09;;;;;;;661.93;610.80;;;15.20;42.60;;;;;;4974873;28;20765;-71
2022/10/15 05:41:35;;;;;;;471.13;439.90;;;15.10;42.70;;;;;;4974464;28;20827;-71
2022/10/15 05:44:01;;;;;;;474.53;441.47;;;15.10;42.90;;;;;;4974557;28;20459;-71
2022/10/15 05:46:26;;;;;;;616.10;573.10;;;15.20;42.50;;;;;;4974698;28;20492;-71
2022/10/15 05:48:54;;;;;;;479.80;443.73;;;15.20;42.60;;;;;;4974834;28;20260;-71
2022/10/15 05:51:20;;;;;;;541.60;500.07;;;15.20;41.70;;;;;;4974429;28;20182;-70
2022/10/15 05:53:46;;;;;;;631.10;585.40;;;15.30;41.90;;;;;;4974537;28;20500;-71
2022/10/15 05:56:13;;;;;;;539.77;500.27;;;15.20;41.20;;;;;;4974435;28;20842;-72
2022/10/15 05:58:39;;;;;;;633.77;589.10;;;15.30;42.20;;;;;;4974573;28;20177;-71
2022/10/15 06:01:07;;;;;;;388.67;363.60;;;15.20;40.80;;;;;;4974022;28;21033;-71
2022/10/15 06:03:33;;;;;;;989.67;903.20;;;15.20;41.20;;;;;;4974654;28;20503;-71
2022/10/15 06:05:59;;;;;;;703.43;650.93;;;15.30;40.90;;;;;;4974332;28;20979;-71
2022/10/15 06:08:24;;;;;;;701.23;646.43;;;15.20;41.10;;;;;;4974245;28;20277;-71
2022/10/15 06:10:50;;;;;;;422.13;393.60;;;15.30;40.90;;;;;;4974072;28;20216;-71
2022/10/15 06:13:16;;;;;;;714.90;657.90;;;15.30;40.90;;;;;;4974288;28;20184;-71
2022/10/15 06:15:44;;;;;;;821.60;760.77;;;15.40;41.00;;;;;;4974101;28;20197;-71
2022/10/15 06:18:14;;;;;;;775.80;711.23;;;15.30;41.10;;;;;;4974201;28;20177;-71
2022/10/15 06:20:40;;;;;;;1002.50;915.33;;;15.20;41.10;;;;;;4974002;28;20459;-72
2022/10/15 06:23:06;;;;;;;735.20;679.53;;;15.30;41.20;;;;;;4973776;28;20769;-72
2022/10/15 06:25:32;;;;;;;783.20;720.40;;;15.30;41.50;;;;;;4973515;28;20441;-70
2022/10/15 06:28:03;;;;;;;539.70;501.37;;;15.30;40.90;;;;;;4973975;28;20277;-71
2022/10/15 06:30:29;;;;;;;867.57;795.67;;;15.40;41.00;;;;;;4973898;28;20432;-71
2022/10/15 06:32:55;;;;;;;651.33;605.80;;;15.30;40.90;;;;;;4973642;28;20420;-70
2022/10/15 06:35:22;;;;;;;464.43;434.03;;;15.30;41.30;;;;;;4973654;28;20498;-71
2022/10/15 06:37:48;;;;;;;770.20;711.90;;;15.40;41.00;;;;;;4973748;28;20431;-75
2022/10/15 06:40:14;;;;;;;794.73;734.13;;;15.50;40.80;;;;;;4973695;28;20417;-70
2022/10/15 06:42:40;;;;;;;1013.40;932.43;;;15.50;40.50;;;;;;4973488;28;20487;-71
2022/10/15 06:45:08;;;;;;;615.00;572.87;;;15.50;41.10;;;;;;4973470;28;20456;-71
2022/10/15 06:47:34;;;;;;;872.07;805.47;;;15.50;41.10;;;;;;4974189;28;20432;-71
2022/10/15 06:49:59;;;;;;;569.63;532.40;;;15.60;41.20;;;;;;4975061;28;20420;-70
2022/10/15 06:52:25;;;;;;;702.43;651.20;;;15.60;41.20;;;;;;4972652;28;20188;-71
2022/10/15 06:54:51;;;;;;;1061.80;971.63;;;15.70;40.80;;;;;;4972545;28;20204;-71
2022/10/15 06:57:16;;;;;;;1121.03;999.90;;;15.80;40.80;;;;;;4970994;28;20251;-70
2022/10/15 06:59:42;;;;;;;556.37;519.00;;;15.80;41.20;;;;;;4969359;28;20189;-70
2022/10/15 07:02:12;;;;;;;744.73;689.33;;;15.80;40.70;;;;;;4969182;28;20205;-72
2022/10/15 07:04:38;;;;;;;522.37;488.87;;;15.80;40.60;;;;;;4968365;28;20231;-72
2022/10/15 07:07:04;;;;;;;470.30;435.13;;;15.90;41.30;;;;;;4969883;28;20421;-70
2022/10/15 07:09:29;;;;;;;727.47;674.13;;;15.90;41.40;;;;;;4969280;28;20205;-71
2022/10/15 07:11:55;;;;;;;848.13;777.37;;;16.00;40.50;;;;;;4969241;28;20212;-70
2022/10/15 07:14:20;;;;;;;662.83;608.87;;;15.90;40.00;;;;;;4968516;28;20672;-70
2022/10/15 07:16:46;;;;;;;416.83;389.13;;;16.00;40.70;;;;;;4966838;28;20640;-71
2022/10/15 07:19:12;;;;;;;864.70;800.83;;;16.10;41.40;;;;;;4955322;28;20194;-71
2022/10/15 07:21:37;;;;;;;1122.13;999.90;;;16.20;40.30;;;;;;4950517;28;20221;-70
2022/10/15 07:24:03;;;;;;;697.37;644.43;;;16.20;40.10;;;;;;4950894;28;20296;-72
2022/10/15 07:26:29;;;;;;;660.40;608.87;;;16.20;40.30;;;;;;4959285;28;20198;-73
2022/10/15 07:28:55;;;;;;;625.63;578.70;;;16.30;40.80;;;;;;4976366;28;20408;-72
2022/10/15 07:31:21;;;;;;;998.67;918.30;;;16.20;40.70;;;;;;4967832;28;20429;-72
2022/10/15 07:33:47;;;;;;;984.00;908.07;;;16.20;40.70;;;;;;4950226;28;20421;-70
2022/10/15 07:36:13;;;;;;;752.93;694.33;;;16.40;41.20;;;;;;4949773;29;20430;-71
2022/10/15 07:38:41;;;;;;;571.93;532.97;;;16.40;41.20;;;;;;4950362;29;20566;-73
2022/10/15 07:41:09;;;;;;;565.33;525.37;;;16.40;41.90;;;;;;4950364;29;20280;-71
2022/10/15 07:43:35;;;;;;;815.13;753.80;;;16.60;41.70;;;;;;4952127;28;20423;-71
2022/10/15 07:46:02;;;;;;;1010.10;927.70;;;16.50;41.10;;;;;;4958618;28;20460;-71
2022/10/15 07:48:28;;;;;;;543.07;503.50;;;16.40;41.90;;;;;;4968447;28;21011;-71
2022/10/15 07:50:59;;;;;;;932.07;858.17;;;16.50;42.80;;;;;;4966931;28;20432;-70
2022/10/15 07:53:24;;;;;;;755.97;692.80;;;16.40;41.90;;;;;;4983027;28;20443;-70
2022/10/15 07:55:50;;;;;;;558.80;521.93;;;16.30;43.30;;;;;;4967866;28;20846;-71
2022/10/15 07:58:16;;;;;;;556.53;517.73;;;16.40;43.80;;;;;;4961619;28;20336;-72
2022/10/15 08:00:42;;;;;;;871.70;800.90;;;16.60;42.90;;;;;;4968826;28;20189;-69
2022/10/15 08:03:08;;;;;;;786.40;724.80;;;16.70;41.50;;;;;;4969529;28;20429;-69
2022/10/15 08:05:33;;;;;;;805.00;742.97;;;16.60;39.50;;;;;;4968435;28;20478;-72
2022/10/15 08:07:59;;;;;;;738.00;677.30;;;16.70;38.80;;;;;;4968344;28;20289;-69
2022/10/15 08:10:25;;;;;;;607.27;564.57;;;16.80;37.00;;;;;;4962420;28;20224;-71
2022/10/15 08:12:51;;;;;;;373.03;347.90;;;16.70;36.90;;;;;;4956944;28;20189;-70
2022/10/15 08:15:17;;;;;;;1112.17;999.90;;;16.90;36.10;;;;;;4956916;28;20441;-70
2022/10/15 08:17:42;;;;;;;831.97;761.50;;;17.00;34.70;;;;;;4974396;28;20212;-70
2022/10/15 08:20:08;;;;;;;765.63;700.53;;;17.00;34.90;;;;;;4975980;28;20936;-70
2022/10/15 08:22:34;;;;;;;1058.43;958.30;;;17.20;34.90;;;;;;4975895;28;20256;-70
2022/10/15 08:25:00;;;;;;;917.07;838.73;;;17.40;32.50;;;;;;4974507;28;20440;-69
2022/10/15 08:27:26;;;;;;;523.53;485.73;;;17.50;33.00;;;;;;4957756;28;20220;-70
2022/10/15 08:29:51;;;;;;;883.97;800.60;;;17.60;32.40;;;;;;4976092;28;20189;-70
2022/10/15 08:32:17;;;;;;;1160.67;999.90;;;17.80;31.40;;;;;;4975655;28;20191;-70
2022/10/15 08:34:42;;;;;;;928.43;845.20;;;18.10;30.40;;;;;;4976065;28;20287;-70
2022/10/15 08:37:08;;;;;;;945.03;855.17;;;18.30;29.70;;;;;;4975756;28;20185;-70
2022/10/15 08:39:34;;;;;;;1128.07;999.90;;;18.30;29.20;;;;;;4975741;28;20243;-71
2022/10/15 08:42:19;;;;;;;1057.17;951.57;;;18.40;28.30;;;;;;4975805;28;20232;-70
2022/10/15 08:45:00;;;;;;;1004.27;903.23;;;18.60;26.10;;;;;;4976330;28;20452;-70
2022/10/15 08:47:35;;;;;;;554.53;508.90;;;18.50;27.90;;;;;;4975611;28;20432;-70
2022/10/15 08:50:11;;;;;;;609.10;556.47;;;18.90;27.60;;;;;;4975704;28;20408;-70
2022/10/15 08:52:48;;;;;;;713.40;643.60;;;19.00;25.40;;;;;;4975516;28;20412;-70
2022/10/15 08:55:16;;;;;;;1489.57;999.90;;;19.30;24.70;;;;;;4975465;28;20456;-70
2022/10/15 08:57:51;;;;;;;1082.00;965.27;;;19.60;24.90;;;;;;4975577;28;20440;-69
2022/10/15 09:00:35;;;;;;;689.53;627.90;;;19.70;23.10;;;;;;4974268;28;20540;-75
2022/10/15 09:03:11;;;;;;;671.60;605.43;;;19.60;21.10;;;;;;4961939;28;20461;-74
2022/10/15 09:06:01;;;;;;;719.80;647.90;;;19.40;21.70;;;;;;4961850;28;20444;-70
2022/10/15 09:08:45;;;;;;;738.03;665.20;;;19.50;22.40;;;;;;4975333;28;20468;-70
2022/10/15 09:11:30;;;;;;;698.67;646.43;;;19.40;22.30;;;;;;4975095;28;20479;-70
2022/10/15 09:13:56;;;;;;;825.57;736.37;;;19.50;21.90;;;;;;4975145;28;20522;-70
2022/10/15 09:16:31;;;;;;;1369.70;999.27;;;19.60;22.20;;;;;;4975109;28;20436;-70
2022/10/15 09:19:00;;;;;;;931.03;830.03;;;19.70;22.10;;;;;;4975312;28;20419;-69
2022/10/15 09:21:28;;;;;;;1083.00;904.20;;;19.80;20.80;;;;;;4975226;28;20457;-69
2022/10/15 09:24:03;;;;;;;1237.03;960.27;;;19.70;21.60;;;;;;4975550;28;20828;-70
2022/10/15 09:26:46;;;;;;;1482.10;999.90;;;19.80;21.00;;;;;;4975750;28;20464;-70
2022/10/15 09:29:22;;;;;;;992.80;872.17;;;19.70;21.70;;;;;;4975534;28;20978;-70
2022/10/15 09:32:04;;;;;;;879.10;758.93;;;19.70;21.50;;;;;;4975302;28;20423;-70
2022/10/15 09:34:45;;;;;;;680.10;621.00;;;19.70;21.80;;;;;;4973699;28;20444;-70
2022/10/15 09:37:24;;;;;;;761.73;684.00;;;19.20;21.40;;;;;;4974518;28;20432;-69
2022/10/15 09:40:27;;;;;;;843.77;748.40;;;19.30;21.40;;;;;;4961670;28;20437;-68
2022/10/15 09:42:53;;;;;;;592.63;545.80;;;19.00;21.00;;;;;;4968835;28;20839;-69
2022/10/15 09:45:22;;;;;;;1447.83;999.90;;;19.10;21.00;;;;;;4969689;28;20591;-68
2022/10/15 09:47:48;;;;;;;986.07;785.80;;;19.10;21.40;;;;;;4970558;28;20441;-69
2022/10/15 09:50:14;;;;;;;915.87;788.13;;;19.10;21.90;;;;;;4970938;28;20432;-68
2022/10/15 09:53:02;;;;;;;817.00;733.63;;;18.90;21.50;;;;;;4970992;28;20460;-69
2022/10/15 09:55:34;;;;;;;688.10;634.83;;;18.80;21.80;;;;;;4970429;28;20205;-68
2022/10/15 09:58:05;;;;;;;1079.03;887.60;;;18.70;22.20;;;;;;4971295;28;20523;-69
2022/10/15 10:00:50;;;;;;;612.70;556.70;;;18.80;22.60;;;;;;4971169;28;20433;-68
2022/10/15 10:03:15;;;;;;;559.27;518.47;;;18.60;21.30;;;;;;4970398;28;20472;-68
2022/10/15 10:05:42;;;;;;;941.90;840.07;;;18.40;20.70;;;;;;4974335;28;20470;-69
2022/10/15 10:08:18;;;;;;;617.60;571.23;;;18.40;21.40;;;;;;4974026;28;20204;-69
2022/10/15 10:10:52;;;;;;;649.87;592.00;;;18.30;20.70;;;;;;4973990;28;20436;-69
2022/10/15 10:13:27;;;;;;;1068.67;932.53;;;18.10;21.40;;;;;;4974151;28;20845;-68
2022/10/15 10:15:54;;;;;;;419.40;382.00;;;18.10;22.20;;;;;;4973976;28;20455;-68
2022/10/15 10:18:24;;;;;;;809.20;724.87;;;18.30;23.30;;;;;;4973990;28;21031;-68
2022/10/15 10:21:02;;;;;;;585.37;545.33;;;18.50;22.40;;;;;;4973828;28;20409;-68
2022/10/15 10:23:37;;;;;;;590.10;547.17;;;18.60;22.50;;;;;;4973830;28;20491;-68
2022/10/15 10:26:05;;;;;;;608.33;561.10;;;18.70;21.20;;;;;;4972751;28;20436;-69
2022/10/15 10:28:44;;;;;;;570.63;526.67;;;18.70;20.90;;;;;;4973245;28;20421;-69
2022/10/15 10:31:10;;;;;;;555.73;508.23;;;18.80;20.10;;;;;;4973844;28;20436;-68
2022/10/15 10:33:38;;;;;;;543.60;499.83;;;19.00;21.10;;;;;;4973841;28;20471;-68
2022/10/15 10:36:05;;;;;;;580.53;534.07;;;19.10;20.30;;;;;;4973825;28;20499;-68
2022/10/15 10:38:33;;;;;;;580.03;528.70;;;19.20;20.40;;;;;;4973866;28;20423;-68
2022/10/15 10:41:06;;;;;;;742.00;679.00;;;19.40;18.90;;;;;;4972959;28;20766;-68
2022/10/15 10:43:34;;;;;;;803.90;732.63;;;19.60;19.20;;;;;;4973694;28;20915;-68
2022/10/15 10:46:13;;;;;;;499.13;460.30;;;19.70;17.80;;;;;;4972146;28;20453;-68
2022/10/15 10:48:41;;;;;;;508.80;468.83;;;19.70;18.70;;;;;;4973503;28;20413;-69
2022/10/15 10:51:06;;;;;;;572.20;529.13;;;19.70;18.60;;;;;;4973054;28;20427;-71
2022/10/15 10:53:36;;;;;;;578.70;534.33;;;19.50;18.30;;;;;;4973571;28;20499;-72
2022/10/15 10:56:03;;;;;;;613.33;564.00;;;19.70;18.40;;;;;;4973267;28;20197;-72
2022/10/15 10:58:33;;;;;;;629.43;576.57;;;20.00;18.40;;;;;;4973481;28;20434;-71
2022/10/15 11:00:58;;;;;;;360.63;333.43;;;20.10;18.10;;;;;;4971531;28;20433;-71
2022/10/15 11:03:32;;;;;;;535.33;491.20;;;20.20;16.70;;;;;;4973357;28;20413;-72
2022/10/15 11:06:30;;;;;;;453.83;417.27;;;20.20;16.70;;;;;;4973245;28;20248;-71
2022/10/15 11:09:14;;;;;;;498.23;456.07;;;20.00;16.50;;;;;;4973018;28;20421;-70
2022/10/15 11:11:58;;;;;;;787.03;719.07;;;20.10;16.60;;;;;;4973253;28;20417;-70
2022/10/15 11:15:00;;;;;;;643.37;585.80;;;20.30;16.80;;;;;;4973380;28;20507;-70
2022/10/15 11:17:48;;;;;;;581.80;532.37;;;20.20;16.70;;;;;;4973279;28;20422;-71
2022/10/15 11:20:40;;;;;;;547.17;501.27;;;20.10;16.60;;;;;;4953417;28;20532;-71
2022/10/15 11:23:23;;;;;;;567.33;520.97;;;19.90;17.40;;;;;;4964485;28;20475;-71
2022/10/15 11:26:12;;;;;;;534.77;490.33;;;19.70;18.70;;;;;;4972591;28;20456;-71
2022/10/15 11:29:01;;;;;;;469.13;432.00;;;19.60;18.70;;;;;;4973023;28;20908;-70
2022/10/15 11:31:38;;;;;;;445.23;407.97;;;19.40;18.20;;;;;;4972718;28;20520;-71
2022/10/15 11:34:35;;;;;;;643.00;586.33;;;19.40;18.10;;;;;;4972863;28;20425;-70
2022/10/15 11:37:19;;;;;;;541.17;497.00;;;19.40;18.80;;;;;;4972693;28;20831;-68
2022/10/15 11:40:05;;;;;;;431.23;396.40;;;19.50;18.50;;;;;;4973017;28;21009;-70
2022/10/15 11:43:08;;;;;;;506.87;463.80;;;19.80;17.80;;;;;;4976650;28;20456;-70
2022/10/15 11:45:37;;;;;;;606.53;552.30;;;19.80;16.40;;;;;;4971089;28;20456;-69
2022/10/15 11:48:28;;;;;;;389.47;359.87;;;19.80;16.40;;;;;;4976546;28;20420;-70
2022/10/15 11:51:11;;;;;;;515.10;474.20;;;19.60;17.20;;;;;;4976755;28;20678;-71
2022/10/15 11:54:12;;;;;;;501.80;462.50;;;19.90;17.50;;;;;;4976456;28;20435;-71
2022/10/15 11:56:50;;;;;;;632.87;579.77;;;19.70;16.30;;;;;;4976805;28;20571;-72
2022/10/15 11:59:29;;;;;;;664.37;606.97;;;19.80;16.40;;;;;;4975061;28;20498;-71
2022/10/15 12:02:11;;;;;;;626.77;574.13;;;19.90;16.50;;;;;;4976160;28;20961;-71
2022/10/15 12:04:48;;;;;;;583.90;531.50;;;19.70;16.30;;;;;;4974859;28;20440;-71
2022/10/15 12:07:48;;;;;;;525.43;480.67;;;19.80;16.40;;;;;;4975363;28;20926;-71
2022/10/15 12:10:32;;;;;;;455.53;420.23;;;20.20;16.40;;;;;;4943932;28;20424;-76
2022/10/15 12:13:17;;;;;;;539.20;495.47;;;20.30;15.60;;;;;;4976300;28;20416;-73
2022/10/15 12:16:10;;;;;;;588.40;540.27;;;20.30;16.30;;;;;;4976482;28;20515;-73
2022/10/15 12:18:48;;;;;;;671.70;615.17;;;20.20;16.70;;;;;;4976404;28;20475;-73
2022/10/15 12:22:05;;;;;;;558.90;514.30;;;20.20;16.10;;;;;;4976196;28;20462;-74
2022/10/15 12:24:51;;;;;;;588.33;541.17;;;20.30;14.70;;;;;;4976238;28;20803;-74
2022/10/15 12:27:23;;;;;;;541.53;496.80;;;20.60;14.50;;;;;;4976278;28;20756;-74